Crystal Symphony — C6MY5 — position and weather

sailwx.info

Track history (hours):
 
Tides and Currents Weather Stations Pressure Air Temp Water Temp Dewpoint Dewpoint Depression Visibility Wind Speed Wind Dir Waves Ship Positions

Crystal Symphony

Operator: Crystal Cruises

Last reported at 2018-Aug-13 13:00 UTC. Time now 2018-Aug-14 15:20 UTC.
Position N 22°54' W 110°12'.

Length 238 m; draft 8 m.

Type: Ship. MMSI: 309168000.

Wind from 290 at 13 knots

Barometer 1013.3 mb
Air temperature 26.0 ° C
Visibility: greater than 10.8 NM
Water temperature 25.0 ° C

Date/timePositionNaut miles runAvg speedWind from/ knotsBaromVisibWave heightAir tempDewpointWater temp
2018-Aug-13 13:00N 22°54' W 110°12'5719.0 290 / 131013.310.8 26.0 25.0
2018-Aug-13 10:00N 23°30' W 111°00'22618.8 330 / 191013.610.8 22.222.224.8
2018-Aug-12 22:00N 26°06' W 114°00'12217.4 270 / 161013.910.8 26.7 22.5
2018-Aug-12 15:00N 27°42' W 115°24'24320.5 290 / 111016.010.8 23.7 22.7
2018-Aug-12 03:09N 30°53' W 118°16'1418.2
2018-Aug-12 02:24N 31°04' W 118°26'718.1
2018-Aug-12 02:01N 31°10' W 118°31'918.3
2018-Aug-12 01:30N 31°17' W 118°37'918.5
2018-Aug-12 01:00N 31°24' W 118°44'2719.0
2018-Aug-11 23:34N 31°46' W 119°04'119.2
2018-Aug-11 23:30N 31°47' W 119°05'1119.4
2018-Aug-11 22:56N 31°55' W 119°13'819.4
2018-Aug-11 22:30N 32°01' W 119°19'2 3.5
2018-Aug-11 22:00N 32°00' W 119°18'12324.4 300 / 101015.010.8 24.0 21.7
2018-Aug-11 21:57N 32°10' W 119°27'919.4
2018-Aug-11 21:30N 32°18' W 119°31'1019.9
2018-Aug-11 21:00N 32°26' W 119°39'1019.9
2018-Aug-11 20:30N 32°34' W 119°46'919.0
2018-Aug-11 20:00N 32°41' W 119°52'918.8
2018-Aug-11 19:30N 32°49' W 119°59'1118.6
2018-Aug-11 18:56N 32°57' W 120°07'818.9
2018-Aug-11 18:30N 33°03' W 120°13'1318.9
2018-Aug-11 17:50N 33°14' W 120°22'718.9
2018-Aug-11 17:29N 33°19' W 120°27'918.8
2018-Aug-11 17:00N 33°26' W 120°33'918.8
2018-Aug-11 16:30N 33°33' W 120°40'1019.0
2018-Aug-11 16:00N 33°41' W 120°47'6461.9
2018-Aug-11 16:00N 33°36' W 120°42'1731.8 310 / 121016.510.8 16.3 18.3
2018-Aug-11 15:28N 33°49' W 120°54'918.8
2018-Aug-11 14:59N 33°57' W 120°60'918.9
2018-Aug-11 14:30N 34°05' W 121°05'1018.8
2018-Aug-11 14:00N 34°13' W 121°10'919.2
2018-Aug-11 13:30N 34°22' W 121°16'1019.7
2018-Aug-11 12:59N 34°31' W 121°22'919.1
2018-Aug-11 12:30N 34°39' W 121°27'1019.0
2018-Aug-11 12:00N 34°47' W 121°33'1019.3
2018-Aug-11 11:31N 34°55' W 121°38'1019.5
2018-Aug-11 11:00N 35°04' W 121°44'1019.5
2018-Aug-11 10:30N 35°13' W 121°50'1020.0
2018-Aug-11 10:00N 35°21' W 121°55'1019.7
2018-Aug-11 09:30N 35°30' W 122°01'1019.1
2018-Aug-11 09:00N 35°38' W 122°07'1019.4
2018-Aug-11 08:30N 35°47' W 122°13'1019.7
2018-Aug-11 08:00N 35°56' W 122°18'1019.6
2018-Aug-11 07:30N 36°04' W 122°24'1019.2
2018-Aug-11 07:01N 36°14' W 122°27'1019.2
2018-Aug-11 06:31N 36°23' W 122°29'1019.3
2018-Aug-11 06:00N 36°32' W 122°32'1019.4
2018-Aug-11 05:31N 36°42' W 122°34'1019.4
2018-Aug-11 05:01N 36°51' W 122°36'1019.4
2018-Aug-11 04:31N 37°01' W 122°39'1019.1
2018-Aug-11 04:00N 37°10' W 122°41'1019.2
2018-Aug-11 03:30N 37°20' W 122°44'1019.3
2018-Aug-11 03:00N 37°29' W 122°44'1019.1
2018-Aug-11 02:30N 37°39' W 122°44'815.9
2018-Aug-11 02:00N 37°46' W 122°40'714.4
2018-Aug-11 01:31N 37°48' W 122°31'611.3
2018-Aug-11 01:00N 37°48' W 122°24'0 0.0
2018-Aug-11 00:28N 37°48' W 122°24'0 0.0
2018-Aug-10 23:58N 37°48' W 122°24'0 0.0
2018-Aug-10 23:30N 37°48' W 122°24'0 0.0
2018-Aug-10 23:00N 37°48' W 122°24'0 0.0
2018-Aug-10 22:30N 37°48' W 122°24'0 0.0
2018-Aug-10 22:00N 37°48' W 122°24'0 0.0
2018-Aug-10 21:30N 37°48' W 122°24'0 0.0
2018-Aug-10 21:00N 37°48' W 122°24'0 0.0
2018-Aug-10 20:30N 37°48' W 122°24'0 0.0
2018-Aug-10 20:00N 37°48' W 122°24'0 0.0
2018-Aug-10 19:24N 37°48' W 122°24'0 0.0
2018-Aug-10 18:59N 37°48' W 122°24'0 0.0
2018-Aug-10 18:30N 37°48' W 122°24'0 0.0
2018-Aug-10 18:00N 37°48' W 122°24'0 0.0
2018-Aug-10 17:29N 37°48' W 122°24'0 0.0
2018-Aug-10 16:56N 37°48' W 122°24'0 0.0
2018-Aug-10 16:29N 37°48' W 122°24'0 0.1
2018-Aug-10 15:58N 37°48' W 122°24'0 0.0
2018-Aug-10 15:28N 37°48' W 122°24'0 0.1
2018-Aug-10 14:59N 37°48' W 122°24'0 0.0
2018-Aug-10 14:29N 37°48' W 122°24'0 0.0
2018-Aug-10 13:59N 37°48' W 122°24'0 0.1
2018-Aug-10 13:30N 37°48' W 122°24'4 7.7
2018-Aug-10 13:01N 37°49' W 122°29'510.9
2018-Aug-10 12:30N 37°47' W 122°35'510.3
2018-Aug-10 12:00N 37°44' W 122°41'713.5
2018-Aug-10 11:30N 37°37' W 122°40'714.9
2018-Aug-10 11:00N 37°30' W 122°40'713.4
2018-Aug-10 10:31N 37°23' W 122°40'713.3
2018-Aug-10 10:00N 37°17' W 122°40'713.2
2018-Aug-10 09:29N 37°10' W 122°40'613.1
2018-Aug-10 09:00N 37°04' W 122°39'612.8
2018-Aug-10 08:30N 36°58' W 122°35'712.9
2018-Aug-10 08:00N 36°52' W 122°32'713.4
2018-Aug-10 07:30N 36°46' W 122°29'816.5
2018-Aug-10 07:00N 36°38' W 122°25'916.8
2018-Aug-10 06:30N 36°30' W 122°21'817.1
2018-Aug-10 06:00N 36°22' W 122°18'816.8
2018-Aug-10 05:30N 36°14' W 122°14'816.5
2018-Aug-10 05:00N 36°07' W 122°10'816.4
2018-Aug-10 04:30N 35°59' W 122°06'816.6
2018-Aug-10 04:00N 35°51' W 122°02'917.0
2018-Aug-10 03:30N 35°44' W 121°57'816.7
2018-Aug-10 03:00N 35°37' W 121°53'816.6
2018-Aug-10 02:30N 35°29' W 121°48'816.9
2018-Aug-10 02:00N 35°22' W 121°43'917.1
2018-Aug-10 01:30N 35°14' W 121°39'816.9
2018-Aug-10 01:00N 35°06' W 121°35'816.7
2018-Aug-10 00:31N 34°59' W 121°30'916.7
2018-Aug-10 00:00N 34°51' W 121°26'3482.6
2018-Aug-10 00:00N 34°48' W 121°24'510.7 320 / 151012.8 2.2 21.017.816.0
2018-Aug-09 23:30N 34°43' W 121°22'917.2
2018-Aug-09 23:00N 34°35' W 121°17'151229.1
2018-Aug-09 23:00N 34°24' W 121°06'612.8 320 / 131013.2 0.3 14.0 16.0
2018-Aug-09 22:30N 34°28' W 121°12'917.2
2018-Aug-09 22:00N 34°21' W 121°07'917.0
2018-Aug-09 21:30N 34°14' W 121°01'816.9
2018-Aug-09 21:00N 34°07' W 120°55'916.7
2018-Aug-09 20:28N 33°60' W 120°49'817.0
2018-Aug-09 20:01N 33°53' W 120°43'917.0
2018-Aug-09 19:29N 33°46' W 120°38'817.2
2018-Aug-09 19:00N 33°39' W 120°32'917.1
2018-Aug-09 18:30N 33°31' W 120°27'817.0
2018-Aug-09 18:00N 33°24' W 120°22'815.5
2018-Aug-09 17:31N 33°24' W 120°12'815.2
2018-Aug-09 17:00N 33°24' W 120°03'10632.3
2018-Aug-09 17:00N 33°18' W 119°54'511.0 270 / 51013.5 5.4 16.1 19.0
2018-Aug-09 16:31N 33°23' W 119°53'816.8
2018-Aug-09 16:01N 33°24' W 119°43'816.8
2018-Aug-09 15:31N 33°24' W 119°33'816.5
2018-Aug-09 15:01N 33°26' W 119°23'816.4
2018-Aug-09 14:30N 33°24' W 119°14'917.2
2018-Aug-09 14:00N 33°21' W 119°04'816.8
2018-Aug-09 13:30N 33°17' W 118°55'917.2
2018-Aug-09 13:01N 33°14' W 118°46'816.9
2018-Aug-09 12:31N 33°10' W 118°36'917.3
2018-Aug-09 12:01N 33°07' W 118°27'917.4
2018-Aug-09 11:31N 33°03' W 118°18'917.6
2018-Aug-09 11:00N 32°58' W 118°09'917.6
2018-Aug-09 10:31N 32°54' W 117°60'917.7
2018-Aug-09 10:00N 32°49' W 117°51'917.4
2018-Aug-09 09:31N 32°45' W 117°42'816.0
2018-Aug-09 09:01N 32°41' W 117°34'815.1
2018-Aug-09 08:31N 32°39' W 117°25'815.7
2018-Aug-09 08:00N 32°38' W 117°16'4 9.0
2018-Aug-09 07:30N 32°42' W 117°14'3 6.0
2018-Aug-09 07:00N 32°43' W 117°10'0 0.1
2018-Aug-09 06:25N 32°43' W 117°10'0 0.0
2018-Aug-09 05:58N 32°43' W 117°10'0 0.0
2018-Aug-09 05:25N 32°43' W 117°10'0 0.0
2018-Aug-09 04:55N 32°43' W 117°10'0 0.0
2018-Aug-09 04:30N 32°43' W 117°10'0 0.0
2018-Aug-09 03:48N 32°43' W 117°10'0 0.0
2018-Aug-09 03:30N 32°43' W 117°10'0 0.0
2018-Aug-09 03:00N 32°43' W 117°10'0 0.0
2018-Aug-09 02:27N 32°43' W 117°10'0 0.0
2018-Aug-09 01:56N 32°43' W 117°10'0 0.0
2018-Aug-09 01:29N 32°43' W 117°10'0 0.0
2018-Aug-09 00:53N 32°43' W 117°10'0 0.0
2018-Aug-09 00:26N 32°43' W 117°10'0 0.0
2018-Aug-08 23:56N 32°43' W 117°10'0 0.0
2018-Aug-08 23:22N 32°43' W 117°10'0 0.0
2018-Aug-08 22:58N 32°43' W 117°10'0 0.0
2018-Aug-08 21:52N 32°43' W 117°10'0 0.0
2018-Aug-08 21:27N 32°43' W 117°10'0 0.0
2018-Aug-08 20:51N 32°43' W 117°10'0 0.0
2018-Aug-08 20:27N 32°43' W 117°10'0 0.0
2018-Aug-08 19:45N 32°43' W 117°10'0 0.0
2018-Aug-08 19:27N 32°43' W 117°10'0 0.0
2018-Aug-08 18:56N 32°43' W 117°10'0 0.0
2018-Aug-08 18:20N 32°43' W 117°10'0 0.0
2018-Aug-08 17:50N 32°43' W 117°10'0 0.0
2018-Aug-08 17:20N 32°43' W 117°10'0 0.0
2018-Aug-08 16:37N 32°43' W 117°10'0 0.0
2018-Aug-08 16:25N 32°43' W 117°10'0 0.0
2018-Aug-08 15:58N 32°43' W 117°10'0 0.0
2018-Aug-08 15:25N 32°43' W 117°10'0 0.0
2018-Aug-08 14:58N 32°43' W 117°10'0 0.7
2018-Aug-08 14:30N 32°43' W 117°11'4 7.5
2018-Aug-08 14:00N 32°40' W 117°14'5 9.4
2018-Aug-08 13:30N 32°36' W 117°15'5 9.7
2018-Aug-08 13:00N 32°32' W 117°18'510.4
2018-Aug-08 12:30N 32°27' W 117°21'612.7
2018-Aug-08 12:00N 32°21' W 117°20'612.9
2018-Aug-08 11:30N 32°15' W 117°16'713.1
2018-Aug-08 11:00N 32°09' W 117°14'814.9
2018-Aug-08 10:30N 32°01' W 117°13'714.8
2018-Aug-08 10:00N 31°54' W 117°10'815.3
2018-Aug-08 09:30N 31°47' W 117°08'714.8
2018-Aug-08 09:00N 31°40' W 117°05'816.5
2018-Aug-08 08:30N 31°32' W 117°02'1019.6
2018-Aug-08 08:00N 31°23' W 116°59'1019.4
2018-Aug-08 07:30N 31°13' W 116°55'1119.1
2018-Aug-08 06:57N 31°03' W 116°52'818.8
2018-Aug-08 06:30N 30°55' W 116°49'1018.6
2018-Aug-08 06:00N 30°46' W 116°46'919.0
2018-Aug-08 05:30N 30°37' W 116°43'1528.2
2018-Aug-08 05:00N 30°24' W 116°36'210.1 140 / 121010.5 5.4 23.0 22.0
2018-Aug-08 04:48N 30°25' W 116°38'618.8
2018-Aug-08 04:30N 30°19' W 116°36'1018.7
2018-Aug-08 04:00N 30°10' W 116°33'918.5
2018-Aug-08 03:30N 30°01' W 116°30'1018.7
2018-Aug-08 02:59N 29°52' W 116°27'918.8
2018-Aug-08 02:29N 29°43' W 116°24'918.9
2018-Aug-08 02:00N 29°34' W 116°20'1019.2
2018-Aug-08 01:30N 29°25' W 116°17'1019.4
2018-Aug-08 01:00N 29°16' W 116°14'1019.5
2018-Aug-08 00:30N 29°07' W 116°11'1119.8
2018-Aug-07 23:56N 28°56' W 116°07'919.6
2018-Aug-07 23:27N 28°47' W 116°04'919.7
2018-Aug-07 23:00N 28°38' W 116°01'2319.5
2018-Aug-07 21:48N 28°16' W 115°53'619.1
2018-Aug-07 21:30N 28°11' W 115°51'510.5
2018-Aug-07 21:00N 28°06' W 115°48'10921.8 040 / 71008.510.8 23.2 21.7
2018-Aug-07 16:00N 26°42' W 114°30'   010 / 51009.010.8 23.5 22.1
2018-Aug-05 00:00N 26°24' W 114°18'2019.8 300 / 171008.327.0 24.022.220.5
2018-Aug-04 22:58N 26°41' W 114°31'919.3
2018-Aug-04 22:29N 26°48' W 114°37'919.4
2018-Aug-04 22:01N 26°55' W 114°44'1019.3
2018-Aug-04 21:30N 27°03' W 114°51'919.1
2018-Aug-04 21:00N 27°10' W 114°57'1019.0
2018-Aug-04 20:29N 27°18' W 115°04'918.5
2018-Aug-04 20:00N 27°24' W 115°12'2122.6 320 / 171011.210.8 23.1 20.8
2018-Aug-04 19:59N 27°25' W 115°11'919.4
2018-Aug-04 19:30N 27°33' W 115°17'1018.9
2018-Aug-04 19:00N 27°40' W 115°24'1519.1
2018-Aug-04 18:14N 27°52' W 115°35'1219.2
2018-Aug-04 17:37N 28°01' W 115°43'619.2
2018-Aug-04 17:20N 28°05' W 115°47'619.4
2018-Aug-04 17:00N 28°10' W 115°51'1019.4
2018-Aug-04 16:27N 28°20' W 115°56'919.5
2018-Aug-04 15:59N 28°29' W 115°60'919.7
2018-Aug-04 15:30N 28°37' W 116°04'1019.4
2018-Aug-04 15:00N 28°46' W 116°08'1319.6
2018-Aug-04 14:22N 28°58' W 116°13'719.7
2018-Aug-04 14:00N 29°04' W 116°16'1019.7
2018-Aug-04 13:30N 29°14' W 116°20'1019.8
2018-Aug-04 13:00N 29°23' W 116°24'191.4
2018-Aug-04 13:00N 29°24' W 116°24'918.3 310 / 151011.410.8 20.7 20.8
2018-Aug-04 12:30N 29°32' W 116°29'1119.9
2018-Aug-04 11:58N 29°42' W 116°33'920.0
2018-Aug-04 11:29N 29°51' W 116°37'919.6
2018-Aug-04 11:00N 29°60' W 116°41'1019.4
2018-Aug-04 10:30N 30°09' W 116°46'1019.3
2018-Aug-04 10:00N 30°17' W 116°50'1019.5
2018-Aug-04 09:30N 30°27' W 116°54'1019.2
2018-Aug-04 09:00N 30°35' W 116°58'918.9
2018-Aug-04 08:30N 30°44' W 117°02'918.6
2018-Aug-04 08:00N 30°53' W 117°06'1018.9
2018-Aug-04 07:30N 31°02' W 117°10'1019.5
2018-Aug-04 07:00N 31°11' W 117°15'1019.6
2018-Aug-04 06:30N 31°20' W 117°19'1019.9
2018-Aug-04 06:01N 31°29' W 117°23'1019.8
2018-Aug-04 05:30N 31°38' W 117°28'1019.7
2018-Aug-04 05:01N 31°47' W 117°31'1019.9
2018-Aug-04 04:30N 31°57' W 117°35'1019.3
2018-Aug-04 04:01N 32°05' W 117°40'1019.4
2018-Aug-04 03:30N 32°14' W 117°45'1019.4
2018-Aug-04 03:00N 32°23' W 117°49'1019.7
2018-Aug-04 02:30N 32°32' W 117°54'1020.1
2018-Aug-04 02:01N 32°42' W 117°58'1019.9
2018-Aug-04 01:31N 32°51' W 118°02'1019.7
2018-Aug-04 01:00N 33°00' W 118°07'1019.6
2018-Aug-04 00:30N 33°09' W 118°11'1019.8
2018-Aug-04 00:00N 33°18' W 118°16'4 7.1
2018-Aug-03 23:28N 33°21' W 118°19'0 0.0
2018-Aug-03 22:52N 33°21' W 118°19'0 0.0
2018-Aug-03 22:30N 33°21' W 118°19'0 0.0
2018-Aug-03 22:00N 33°21' W 118°19'0 0.0
2018-Aug-03 21:27N 33°21' W 118°19'0 0.0
2018-Aug-03 21:00N 33°21' W 118°19'0 0.1
2018-Aug-03 20:30N 33°21' W 118°19'0 0.0
2018-Aug-03 19:59N 33°21' W 118°19'0 0.0
2018-Aug-03 19:26N 33°21' W 118°19'0 0.0
2018-Aug-03 18:59N 33°21' W 118°19'0 0.0
2018-Aug-03 18:29N 33°21' W 118°19'0 0.0
2018-Aug-03 17:58N 33°21' W 118°19'0 0.1
2018-Aug-03 17:28N 33°21' W 118°19'0 0.0
2018-Aug-03 16:58N 33°21' W 118°19'0 0.1
2018-Aug-03 16:30N 33°21' W 118°19'5 9.7
2018-Aug-03 16:00N 33°26' W 118°20'611.6
2018-Aug-03 15:31N 33°30' W 118°25'612.2
2018-Aug-03 15:00N 33°32' W 118°32'612.1
2018-Aug-03 14:30N 33°34' W 118°39'917.3
2018-Aug-03 14:00N 33°36' W 118°49'173.9
2018-Aug-03 14:00N 33°36' W 118°48'1121.9 170 / 21012.610.8 18.9 20.4
2018-Aug-03 13:30N 33°37' W 119°01'1019.8
2018-Aug-03 13:00N 33°36' W 119°13'  
Track history (hours):
 
Tides and Currents Weather Stations Pressure Air Temp Water Temp Dewpoint Dewpoint Depression Visibility Wind Speed Wind Dir Waves Ship Positions

Crystal Symphony

Operator: Crystal Cruises

Last reported at 2018-Aug-13 13:00 UTC. Time now 2018-Aug-14 15:20 UTC.
Position N 22°54' W 110°12'.

Length 238 m; draft 8 m.

Type: Ship. MMSI: 309168000.

Wind from 290 at 13 knots

Barometer 1013.3 mb
Air temperature 26.0 ° C
Visibility: greater than 10.8 NM
Water temperature 25.0 ° C

Date/timePositionNaut miles runAvg speedWind from/ knotsBaromVisibWave heightAir tempDewpointWater temp
2018-Aug-13 13:00N 22°54' W 110°12'5719.0 290 / 131013.310.8 26.0 25.0
2018-Aug-13 10:00N 23°30' W 111°00'22618.8 330 / 191013.610.8 22.222.224.8
2018-Aug-12 22:00N 26°06' W 114°00'12217.4 270 / 161013.910.8 26.7 22.5
2018-Aug-12 15:00N 27°42' W 115°24'24320.5 290 / 111016.010.8 23.7 22.7
2018-Aug-12 03:09N 30°53' W 118°16'1418.2
2018-Aug-12 02:24N 31°04' W 118°26'718.1
2018-Aug-12 02:01N 31°10' W 118°31'918.3
2018-Aug-12 01:30N 31°17' W 118°37'918.5
2018-Aug-12 01:00N 31°24' W 118°44'2719.0
2018-Aug-11 23:34N 31°46' W 119°04'119.2
2018-Aug-11 23:30N 31°47' W 119°05'1119.4
2018-Aug-11 22:56N 31°55' W 119°13'819.4
2018-Aug-11 22:30N 32°01' W 119°19'2 3.5
2018-Aug-11 22:00N 32°00' W 119°18'12324.4 300 / 101015.010.8 24.0 21.7
2018-Aug-11 21:57N 32°10' W 119°27'919.4
2018-Aug-11 21:30N 32°18' W 119°31'1019.9
2018-Aug-11 21:00N 32°26' W 119°39'1019.9
2018-Aug-11 20:30N 32°34' W 119°46'919.0
2018-Aug-11 20:00N 32°41' W 119°52'918.8
2018-Aug-11 19:30N 32°49' W 119°59'1118.6
2018-Aug-11 18:56N 32°57' W 120°07'818.9
2018-Aug-11 18:30N 33°03' W 120°13'1318.9
2018-Aug-11 17:50N 33°14' W 120°22'718.9
2018-Aug-11 17:29N 33°19' W 120°27'918.8
2018-Aug-11 17:00N 33°26' W 120°33'918.8
2018-Aug-11 16:30N 33°33' W 120°40'1019.0
2018-Aug-11 16:00N 33°41' W 120°47'6461.9
2018-Aug-11 16:00N 33°36' W 120°42'1731.8 310 / 121016.510.8 16.3 18.3
2018-Aug-11 15:28N 33°49' W 120°54'918.8
2018-Aug-11 14:59N 33°57' W 120°60'918.9
2018-Aug-11 14:30N 34°05' W 121°05'1018.8
2018-Aug-11 14:00N 34°13' W 121°10'919.2
2018-Aug-11 13:30N 34°22' W 121°16'1019.7
2018-Aug-11 12:59N 34°31' W 121°22'919.1
2018-Aug-11 12:30N 34°39' W 121°27'1019.0
2018-Aug-11 12:00N 34°47' W 121°33'1019.3
2018-Aug-11 11:31N 34°55' W 121°38'1019.5
2018-Aug-11 11:00N 35°04' W 121°44'1019.5
2018-Aug-11 10:30N 35°13' W 121°50'1020.0
2018-Aug-11 10:00N 35°21' W 121°55'1019.7
2018-Aug-11 09:30N 35°30' W 122°01'1019.1
2018-Aug-11 09:00N 35°38' W 122°07'1019.4
2018-Aug-11 08:30N 35°47' W 122°13'1019.7
2018-Aug-11 08:00N 35°56' W 122°18'1019.6
2018-Aug-11 07:30N 36°04' W 122°24'1019.2
2018-Aug-11 07:01N 36°14' W 122°27'1019.2
2018-Aug-11 06:31N 36°23' W 122°29'1019.3
2018-Aug-11 06:00N 36°32' W 122°32'1019.4
2018-Aug-11 05:31N 36°42' W 122°34'1019.4
2018-Aug-11 05:01N 36°51' W 122°36'1019.4
2018-Aug-11 04:31N 37°01' W 122°39'1019.1
2018-Aug-11 04:00N 37°10' W 122°41'1019.2
2018-Aug-11 03:30N 37°20' W 122°44'1019.3
2018-Aug-11 03:00N 37°29' W 122°44'1019.1
2018-Aug-11 02:30N 37°39' W 122°44'815.9
2018-Aug-11 02:00N 37°46' W 122°40'714.4
2018-Aug-11 01:31N 37°48' W 122°31'611.3
2018-Aug-11 01:00N 37°48' W 122°24'0 0.0
2018-Aug-11 00:28N 37°48' W 122°24'0 0.0
2018-Aug-10 23:58N 37°48' W 122°24'0 0.0
2018-Aug-10 23:30N 37°48' W 122°24'0 0.0
2018-Aug-10 23:00N 37°48' W 122°24'0 0.0
2018-Aug-10 22:30N 37°48' W 122°24'0 0.0
2018-Aug-10 22:00N 37°48' W 122°24'0 0.0
2018-Aug-10 21:30N 37°48' W 122°24'0 0.0
2018-Aug-10 21:00N 37°48' W 122°24'0 0.0
2018-Aug-10 20:30N 37°48' W 122°24'0 0.0
2018-Aug-10 20:00N 37°48' W 122°24'0 0.0
2018-Aug-10 19:24N 37°48' W 122°24'0 0.0
2018-Aug-10 18:59N 37°48' W 122°24'0 0.0
2018-Aug-10 18:30N 37°48' W 122°24'0 0.0
2018-Aug-10 18:00N 37°48' W 122°24'0 0.0
2018-Aug-10 17:29N 37°48' W 122°24'0 0.0
2018-Aug-10 16:56N 37°48' W 122°24'0 0.0
2018-Aug-10 16:29N 37°48' W 122°24'0 0.1
2018-Aug-10 15:58N 37°48' W 122°24'0 0.0
2018-Aug-10 15:28N 37°48' W 122°24'0 0.1
2018-Aug-10 14:59N 37°48' W 122°24'0 0.0
2018-Aug-10 14:29N 37°48' W 122°24'0 0.0
2018-Aug-10 13:59N 37°48' W 122°24'0 0.1
2018-Aug-10 13:30N 37°48' W 122°24'4 7.7
2018-Aug-10 13:01N 37°49' W 122°29'510.9
2018-Aug-10 12:30N 37°47' W 122°35'510.3
2018-Aug-10 12:00N 37°44' W 122°41'713.5
2018-Aug-10 11:30N 37°37' W 122°40'714.9
2018-Aug-10 11:00N 37°30' W 122°40'713.4
2018-Aug-10 10:31N 37°23' W 122°40'713.3
2018-Aug-10 10:00N 37°17' W 122°40'713.2
2018-Aug-10 09:29N 37°10' W 122°40'613.1
2018-Aug-10 09:00N 37°04' W 122°39'612.8
2018-Aug-10 08:30N 36°58' W 122°35'712.9
2018-Aug-10 08:00N 36°52' W 122°32'713.4
2018-Aug-10 07:30N 36°46' W 122°29'816.5
2018-Aug-10 07:00N 36°38' W 122°25'916.8
2018-Aug-10 06:30N 36°30' W 122°21'817.1
2018-Aug-10 06:00N 36°22' W 122°18'816.8
2018-Aug-10 05:30N 36°14' W 122°14'816.5
2018-Aug-10 05:00N 36°07' W 122°10'816.4
2018-Aug-10 04:30N 35°59' W 122°06'816.6
2018-Aug-10 04:00N 35°51' W 122°02'917.0
2018-Aug-10 03:30N 35°44' W 121°57'816.7
2018-Aug-10 03:00N 35°37' W 121°53'816.6
2018-Aug-10 02:30N 35°29' W 121°48'816.9
2018-Aug-10 02:00N 35°22' W 121°43'917.1
2018-Aug-10 01:30N 35°14' W 121°39'816.9
2018-Aug-10 01:00N 35°06' W 121°35'816.7
2018-Aug-10 00:31N 34°59' W 121°30'916.7
2018-Aug-10 00:00N 34°51' W 121°26'3482.6
2018-Aug-10 00:00N 34°48' W 121°24'510.7 320 / 151012.8 2.2 21.017.816.0
2018-Aug-09 23:30N 34°43' W 121°22'917.2
2018-Aug-09 23:00N 34°35' W 121°17'151229.1
2018-Aug-09 23:00N 34°24' W 121°06'612.8 320 / 131013.2 0.3 14.0 16.0
2018-Aug-09 22:30N 34°28' W 121°12'917.2
2018-Aug-09 22:00N 34°21' W 121°07'917.0
2018-Aug-09 21:30N 34°14' W 121°01'816.9
2018-Aug-09 21:00N 34°07' W 120°55'916.7
2018-Aug-09 20:28N 33°60' W 120°49'817.0
2018-Aug-09 20:01N 33°53' W 120°43'917.0
2018-Aug-09 19:29N 33°46' W 120°38'817.2
2018-Aug-09 19:00N 33°39' W 120°32'917.1
2018-Aug-09 18:30N 33°31' W 120°27'817.0
2018-Aug-09 18:00N 33°24' W 120°22'815.5
2018-Aug-09 17:31N 33°24' W 120°12'815.2
2018-Aug-09 17:00N 33°24' W 120°03'10632.3
2018-Aug-09 17:00N 33°18' W 119°54'511.0 270 / 51013.5 5.4 16.1 19.0
2018-Aug-09 16:31N 33°23' W 119°53'816.8
2018-Aug-09 16:01N 33°24' W 119°43'816.8
2018-Aug-09 15:31N 33°24' W 119°33'816.5
2018-Aug-09 15:01N 33°26' W 119°23'816.4
2018-Aug-09 14:30N 33°24' W 119°14'917.2
2018-Aug-09 14:00N 33°21' W 119°04'816.8
2018-Aug-09 13:30N 33°17' W 118°55'917.2
2018-Aug-09 13:01N 33°14' W 118°46'816.9
2018-Aug-09 12:31N 33°10' W 118°36'917.3
2018-Aug-09 12:01N 33°07' W 118°27'917.4
2018-Aug-09 11:31N 33°03' W 118°18'917.6
2018-Aug-09 11:00N 32°58' W 118°09'917.6
2018-Aug-09 10:31N 32°54' W 117°60'917.7
2018-Aug-09 10:00N 32°49' W 117°51'917.4
2018-Aug-09 09:31N 32°45' W 117°42'816.0
2018-Aug-09 09:01N 32°41' W 117°34'815.1
2018-Aug-09 08:31N 32°39' W 117°25'815.7
2018-Aug-09 08:00N 32°38' W 117°16'4 9.0
2018-Aug-09 07:30N 32°42' W 117°14'3 6.0
2018-Aug-09 07:00N 32°43' W 117°10'0 0.1
2018-Aug-09 06:25N 32°43' W 117°10'0 0.0
2018-Aug-09 05:58N 32°43' W 117°10'0 0.0
2018-Aug-09 05:25N 32°43' W 117°10'0 0.0
2018-Aug-09 04:55N 32°43' W 117°10'0 0.0
2018-Aug-09 04:30N 32°43' W 117°10'0 0.0
2018-Aug-09 03:48N 32°43' W 117°10'0 0.0
2018-Aug-09 03:30N 32°43' W 117°10'0 0.0
2018-Aug-09 03:00N 32°43' W 117°10'0 0.0
2018-Aug-09 02:27N 32°43' W 117°10'0 0.0
2018-Aug-09 01:56N 32°43' W 117°10'0 0.0
2018-Aug-09 01:29N 32°43' W 117°10'0 0.0
2018-Aug-09 00:53N 32°43' W 117°10'0 0.0
2018-Aug-09 00:26N 32°43' W 117°10'0 0.0
2018-Aug-08 23:56N 32°43' W 117°10'0 0.0
2018-Aug-08 23:22N 32°43' W 117°10'0 0.0
2018-Aug-08 22:58N 32°43' W 117°10'0 0.0
2018-Aug-08 21:52N 32°43' W 117°10'0 0.0
2018-Aug-08 21:27N 32°43' W 117°10'0 0.0
2018-Aug-08 20:51N 32°43' W 117°10'0 0.0
2018-Aug-08 20:27N 32°43' W 117°10'0 0.0
2018-Aug-08 19:45N 32°43' W 117°10'0 0.0
2018-Aug-08 19:27N 32°43' W 117°10'0 0.0
2018-Aug-08 18:56N 32°43' W 117°10'0 0.0
2018-Aug-08 18:20N 32°43' W 117°10'0 0.0
2018-Aug-08 17:50N 32°43' W 117°10'0 0.0
2018-Aug-08 17:20N 32°43' W 117°10'0 0.0
2018-Aug-08 16:37N 32°43' W 117°10'0 0.0
2018-Aug-08 16:25N 32°43' W 117°10'0 0.0
2018-Aug-08 15:58N 32°43' W 117°10'0 0.0
2018-Aug-08 15:25N 32°43' W 117°10'0 0.0
2018-Aug-08 14:58N 32°43' W 117°10'0 0.7
2018-Aug-08 14:30N 32°43' W 117°11'4 7.5
2018-Aug-08 14:00N 32°40' W 117°14'5 9.4
2018-Aug-08 13:30N 32°36' W 117°15'5 9.7
2018-Aug-08 13:00N 32°32' W 117°18'510.4
2018-Aug-08 12:30N 32°27' W 117°21'612.7
2018-Aug-08 12:00N 32°21' W 117°20'612.9
2018-Aug-08 11:30N 32°15' W 117°16'713.1
2018-Aug-08 11:00N 32°09' W 117°14'814.9
2018-Aug-08 10:30N 32°01' W 117°13'714.8
2018-Aug-08 10:00N 31°54' W 117°10'815.3
2018-Aug-08 09:30N 31°47' W 117°08'714.8
2018-Aug-08 09:00N 31°40' W 117°05'816.5
2018-Aug-08 08:30N 31°32' W 117°02'1019.6
2018-Aug-08 08:00N 31°23' W 116°59'1019.4
2018-Aug-08 07:30N 31°13' W 116°55'1119.1
2018-Aug-08 06:57N 31°03' W 116°52'818.8
2018-Aug-08 06:30N 30°55' W 116°49'1018.6
2018-Aug-08 06:00N 30°46' W 116°46'919.0
2018-Aug-08 05:30N 30°37' W 116°43'1528.2
2018-Aug-08 05:00N 30°24' W 116°36'210.1 140 / 121010.5 5.4 23.0 22.0
2018-Aug-08 04:48N 30°25' W 116°38'618.8
2018-Aug-08 04:30N 30°19' W 116°36'1018.7
2018-Aug-08 04:00N 30°10' W 116°33'918.5
2018-Aug-08 03:30N 30°01' W 116°30'1018.7
2018-Aug-08 02:59N 29°52' W 116°27'918.8
2018-Aug-08 02:29N 29°43' W 116°24'918.9
2018-Aug-08 02:00N 29°34' W 116°20'1019.2
2018-Aug-08 01:30N 29°25' W 116°17'1019.4
2018-Aug-08 01:00N 29°16' W 116°14'1019.5
2018-Aug-08 00:30N 29°07' W 116°11'1119.8
2018-Aug-07 23:56N 28°56' W 116°07'919.6
2018-Aug-07 23:27N 28°47' W 116°04'919.7
2018-Aug-07 23:00N 28°38' W 116°01'2319.5
2018-Aug-07 21:48N 28°16' W 115°53'619.1
2018-Aug-07 21:30N 28°11' W 115°51'510.5
2018-Aug-07 21:00N 28°06' W 115°48'10921.8 040 / 71008.510.8 23.2 21.7
2018-Aug-07 16:00N 26°42' W 114°30'   010 / 51009.010.8 23.5 22.1
2018-Aug-05 00:00N 26°24' W 114°18'2019.8 300 / 171008.327.0 24.022.220.5
2018-Aug-04 22:58N 26°41' W 114°31'919.3
2018-Aug-04 22:29N 26°48' W 114°37'919.4
2018-Aug-04 22:01N 26°55' W 114°44'1019.3
2018-Aug-04 21:30N 27°03' W 114°51'919.1
2018-Aug-04 21:00N 27°10' W 114°57'1019.0
2018-Aug-04 20:29N 27°18' W 115°04'918.5
2018-Aug-04 20:00N 27°24' W 115°12'2122.6 320 / 171011.210.8 23.1 20.8
2018-Aug-04 19:59N 27°25' W 115°11'919.4
2018-Aug-04 19:30N 27°33' W 115°17'1018.9
2018-Aug-04 19:00N 27°40' W 115°24'1519.1
2018-Aug-04 18:14N 27°52' W 115°35'1219.2
2018-Aug-04 17:37N 28°01' W 115°43'619.2
2018-Aug-04 17:20N 28°05' W 115°47'619.4
2018-Aug-04 17:00N 28°10' W 115°51'1019.4
2018-Aug-04 16:27N 28°20' W 115°56'919.5
2018-Aug-04 15:59N 28°29' W 115°60'919.7
2018-Aug-04 15:30N 28°37' W 116°04'1019.4
2018-Aug-04 15:00N 28°46' W 116°08'1319.6
2018-Aug-04 14:22N 28°58' W 116°13'719.7
2018-Aug-04 14:00N 29°04' W 116°16'1019.7
2018-Aug-04 13:30N 29°14' W 116°20'1019.8
2018-Aug-04 13:00N 29°23' W 116°24'191.4
2018-Aug-04 13:00N 29°24' W 116°24'918.3 310 / 151011.410.8 20.7 20.8
2018-Aug-04 12:30N 29°32' W 116°29'1119.9
2018-Aug-04 11:58N 29°42' W 116°33'920.0
2018-Aug-04 11:29N 29°51' W 116°37'919.6
2018-Aug-04 11:00N 29°60' W 116°41'1019.4
2018-Aug-04 10:30N 30°09' W 116°46'1019.3
2018-Aug-04 10:00N 30°17' W 116°50'1019.5
2018-Aug-04 09:30N 30°27' W 116°54'1019.2
2018-Aug-04 09:00N 30°35' W 116°58'918.9
2018-Aug-04 08:30N 30°44' W 117°02'918.6
2018-Aug-04 08:00N 30°53' W 117°06'1018.9
2018-Aug-04 07:30N 31°02' W 117°10'1019.5
2018-Aug-04 07:00N 31°11' W 117°15'1019.6
2018-Aug-04 06:30N 31°20' W 117°19'1019.9
2018-Aug-04 06:01N 31°29' W 117°23'1019.8
2018-Aug-04 05:30N 31°38' W 117°28'1019.7
2018-Aug-04 05:01N 31°47' W 117°31'1019.9
2018-Aug-04 04:30N 31°57' W 117°35'1019.3
2018-Aug-04 04:01N 32°05' W 117°40'1019.4
2018-Aug-04 03:30N 32°14' W 117°45'1019.4
2018-Aug-04 03:00N 32°23' W 117°49'1019.7
2018-Aug-04 02:30N 32°32' W 117°54'1020.1
2018-Aug-04 02:01N 32°42' W 117°58'1019.9
2018-Aug-04 01:31N 32°51' W 118°02'1019.7
2018-Aug-04 01:00N 33°00' W 118°07'1019.6
2018-Aug-04 00:30N 33°09' W 118°11'1019.8
2018-Aug-04 00:00N 33°18' W 118°16'4 7.1
2018-Aug-03 23:28N 33°21' W 118°19'0 0.0
2018-Aug-03 22:52N 33°21' W 118°19'0 0.0
2018-Aug-03 22:30N 33°21' W 118°19'0 0.0
2018-Aug-03 22:00N 33°21' W 118°19'0 0.0
2018-Aug-03 21:27N 33°21' W 118°19'0 0.0
2018-Aug-03 21:00N 33°21' W 118°19'0 0.1
2018-Aug-03 20:30N 33°21' W 118°19'0 0.0
2018-Aug-03 19:59N 33°21' W 118°19'0 0.0
2018-Aug-03 19:26N 33°21' W 118°19'0 0.0
2018-Aug-03 18:59N 33°21' W 118°19'0 0.0
2018-Aug-03 18:29N 33°21' W 118°19'0 0.0
2018-Aug-03 17:58N 33°21' W 118°19'0 0.1
2018-Aug-03 17:28N 33°21' W 118°19'0 0.0
2018-Aug-03 16:58N 33°21' W 118°19'0 0.1
2018-Aug-03 16:30N 33°21' W 118°19'5 9.7
2018-Aug-03 16:00N 33°26' W 118°20'611.6
2018-Aug-03 15:31N 33°30' W 118°25'612.2
2018-Aug-03 15:00N 33°32' W 118°32'612.1
2018-Aug-03 14:30N 33°34' W 118°39'917.3
2018-Aug-03 14:00N 33°36' W 118°49'173.9
2018-Aug-03 14:00N 33°36' W 118°48'1121.9 170 / 21012.610.8 18.9 20.4
2018-Aug-03 13:30N 33°37' W 119°01'1019.8
2018-Aug-03 13:00N 33°36' W 119°13'  

Dump ship's entire track history